sensor_id;sensor_type;location;lat;lon;timestamp;P1;durP1;ratioP1;P2;durP2;ratioP2
85104;SDS011;75457;53.198;45.008;2024-01-16T00:00:06;11.98;;;8.82;;
85104;SDS011;75457;53.198;45.008;2024-01-16T00:02:32;15.35;;;8.00;;
85104;SDS011;75457;53.198;45.008;2024-01-16T00:04:58;15.32;;;9.23;;
85104;SDS011;75457;53.198;45.008;2024-01-16T00:07:23;16.50;;;8.88;;
85104;SDS011;75457;53.198;45.008;2024-01-16T00:09:50;12.93;;;8.13;;
85104;SDS011;75457;53.198;45.008;2024-01-16T00:12:16;13.32;;;7.85;;
85104;SDS011;75457;53.198;45.008;2024-01-16T00:14:41;11.98;;;7.20;;
85104;SDS011;75457;53.198;45.008;2024-01-16T00:17:07;11.90;;;7.65;;
85104;SDS011;75457;53.198;45.008;2024-01-16T00:19:33;12.65;;;8.45;;
85104;SDS011;75457;53.198;45.008;2024-01-16T00:21:58;12.85;;;7.13;;
85104;SDS011;75457;53.198;45.008;2024-01-16T00:24:24;14.52;;;7.55;;
85104;SDS011;75457;53.198;45.008;2024-01-16T00:26:51;11.77;;;7.85;;
85104;SDS011;75457;53.198;45.008;2024-01-16T00:29:16;13.52;;;7.85;;
85104;SDS011;75457;53.198;45.008;2024-01-16T00:31:42;13.32;;;7.50;;
85104;SDS011;75457;53.198;45.008;2024-01-16T00:34:08;14.95;;;7.80;;
85104;SDS011;75457;53.198;45.008;2024-01-16T00:36:34;13.25;;;7.38;;
85104;SDS011;75457;53.198;45.008;2024-01-16T00:39:00;15.50;;;8.23;;
85104;SDS011;75457;53.198;45.008;2024-01-16T00:41:25;11.40;;;7.80;;
85104;SDS011;75457;53.198;45.008;2024-01-16T00:43:52;14.50;;;8.13;;
85104;SDS011;75457;53.198;45.008;2024-01-16T00:46:18;13.32;;;7.85;;
85104;SDS011;75457;53.198;45.008;2024-01-16T00:48:43;13.75;;;8.45;;
85104;SDS011;75457;53.198;45.008;2024-01-16T00:51:09;13.25;;;7.20;;
85104;SDS011;75457;53.198;45.008;2024-01-16T00:53:39;12.88;;;7.72;;
85104;SDS011;75457;53.198;45.008;2024-01-16T00:56:05;12.55;;;8.20;;
85104;SDS011;75457;53.198;45.008;2024-01-16T00:58:31;12.68;;;7.82;;
85104;SDS011;75457;53.198;45.008;2024-01-16T01:00:58;12.02;;;7.47;;
85104;SDS011;75457;53.198;45.008;2024-01-16T01:03:23;13.60;;;8.02;;
85104;SDS011;75457;53.198;45.008;2024-01-16T01:05:49;13.50;;;7.68;;
85104;SDS011;75457;53.198;45.008;2024-01-16T01:08:14;15.20;;;7.85;;
85104;SDS011;75457;53.198;45.008;2024-01-16T01:10:40;14.38;;;7.43;;
85104;SDS011;75457;53.198;45.008;2024-01-16T01:13:06;11.27;;;7.32;;
85104;SDS011;75457;53.198;45.008;2024-01-16T01:15:31;13.50;;;8.02;;
85104;SDS011;75457;53.198;45.008;2024-01-16T01:17:58;14.52;;;7.43;;
85104;SDS011;75457;53.198;45.008;2024-01-16T01:20:24;14.48;;;7.82;;
85104;SDS011;75457;53.198;45.008;2024-01-16T01:22:49;13.88;;;7.93;;
85104;SDS011;75457;53.198;45.008;2024-01-16T01:25:15;14.25;;;7.78;;
85104;SDS011;75457;53.198;45.008;2024-01-16T01:27:40;14.60;;;8.25;;
85104;SDS011;75457;53.198;45.008;2024-01-16T01:30:06;12.63;;;7.80;;
85104;SDS011;75457;53.198;45.008;2024-01-16T01:32:33;13.15;;;7.47;;
85104;SDS011;75457;53.198;45.008;2024-01-16T01:35:00;11.30;;;6.85;;
85104;SDS011;75457;53.198;45.008;2024-01-16T01:37:26;13.88;;;7.30;;
85104;SDS011;75457;53.198;45.008;2024-01-16T01:39:51;11.80;;;7.38;;
85104;SDS011;75457;53.198;45.008;2024-01-16T01:42:17;13.55;;;7.93;;
85104;SDS011;75457;53.198;45.008;2024-01-16T01:44:42;11.65;;;6.93;;
85104;SDS011;75457;53.198;45.008;2024-01-16T01:47:08;13.70;;;7.32;;
85104;SDS011;75457;53.198;45.008;2024-01-16T01:49:34;11.85;;;7.82;;
85104;SDS011;75457;53.198;45.008;2024-01-16T01:52:02;11.23;;;7.45;;
85104;SDS011;75457;53.198;45.008;2024-01-16T01:54:29;13.57;;;7.53;;
85104;SDS011;75457;53.198;45.008;2024-01-16T01:56:57;10.98;;;6.60;;
85104;SDS011;75457;53.198;45.008;2024-01-16T01:59:22;9.75;;;6.78;;
85104;SDS011;75457;53.198;45.008;2024-01-16T02:01:49;11.05;;;6.43;;
85104;SDS011;75457;53.198;45.008;2024-01-16T02:04:16;12.90;;;7.65;;
85104;SDS011;75457;53.198;45.008;2024-01-16T02:06:44;10.32;;;7.10;;
85104;SDS011;75457;53.198;45.008;2024-01-16T02:09:11;12.90;;;7.43;;
85104;SDS011;75457;53.198;45.008;2024-01-16T02:11:36;14.30;;;6.80;;
85104;SDS011;75457;53.198;45.008;2024-01-16T02:14:02;11.60;;;7.07;;
85104;SDS011;75457;53.198;45.008;2024-01-16T02:16:34;10.88;;;6.88;;
85104;SDS011;75457;53.198;45.008;2024-01-16T02:19:01;10.65;;;6.63;;
85104;SDS011;75457;53.198;45.008;2024-01-16T02:21:27;9.68;;;5.75;;
85104;SDS011;75457;53.198;45.008;2024-01-16T02:23:58;10.23;;;5.82;;
85104;SDS011;75457;53.198;45.008;2024-01-16T02:26:24;11.38;;;6.47;;
85104;SDS011;75457;53.198;45.008;2024-01-16T02:28:50;10.40;;;6.43;;
85104;SDS011;75457;53.198;45.008;2024-01-16T02:33:43;13.10;;;6.43;;
85104;SDS011;75457;53.198;45.008;2024-01-16T02:36:09;8.52;;;5.45;;
85104;SDS011;75457;53.198;45.008;2024-01-16T02:38:34;8.85;;;5.22;;
85104;SDS011;75457;53.198;45.008;2024-01-16T02:41:01;9.38;;;6.28;;
85104;SDS011;75457;53.198;45.008;2024-01-16T02:43:27;9.60;;;5.97;;
85104;SDS011;75457;53.198;45.008;2024-01-16T02:45:53;8.98;;;6.40;;
85104;SDS011;75457;53.198;45.008;2024-01-16T02:48:18;8.90;;;5.85;;
85104;SDS011;75457;53.198;45.008;2024-01-16T02:50:44;11.60;;;6.22;;
85104;SDS011;75457;53.198;45.008;2024-01-16T02:53:09;10.80;;;5.90;;
85104;SDS011;75457;53.198;45.008;2024-01-16T02:55:35;9.15;;;5.93;;
85104;SDS011;75457;53.198;45.008;2024-01-16T02:58:02;10.27;;;6.32;;
85104;SDS011;75457;53.198;45.008;2024-01-16T03:00:27;9.55;;;5.78;;
85104;SDS011;75457;53.198;45.008;2024-01-16T03:02:53;9.43;;;5.45;;
85104;SDS011;75457;53.198;45.008;2024-01-16T03:05:19;9.50;;;6.07;;
85104;SDS011;75457;53.198;45.008;2024-01-16T03:07:44;9.30;;;6.38;;
85104;SDS011;75457;53.198;45.008;2024-01-16T03:10:10;10.38;;;6.00;;
85104;SDS011;75457;53.198;45.008;2024-01-16T03:12:35;12.50;;;7.22;;
85104;SDS011;75457;53.198;45.008;2024-01-16T03:15:03;12.05;;;6.15;;
85104;SDS011;75457;53.198;45.008;2024-01-16T03:17:29;9.48;;;5.60;;
85104;SDS011;75457;53.198;45.008;2024-01-16T03:19:54;11.27;;;6.55;;
85104;SDS011;75457;53.198;45.008;2024-01-16T03:22:20;10.90;;;6.88;;
85104;SDS011;75457;53.198;45.008;2024-01-16T03:24:46;10.55;;;6.07;;
85104;SDS011;75457;53.198;45.008;2024-01-16T03:27:11;11.02;;;6.40;;
85104;SDS011;75457;53.198;45.008;2024-01-16T03:29:37;9.05;;;5.53;;
85104;SDS011;75457;53.198;45.008;2024-01-16T03:32:04;10.00;;;5.63;;
85104;SDS011;75457;53.198;45.008;2024-01-16T03:34:30;10.85;;;6.43;;
85104;SDS011;75457;53.198;45.008;2024-01-16T03:36:56;9.90;;;6.20;;
85104;SDS011;75457;53.198;45.008;2024-01-16T03:39:21;9.88;;;6.30;;
85104;SDS011;75457;53.198;45.008;2024-01-16T03:41:47;9.93;;;6.00;;
85104;SDS011;75457;53.198;45.008;2024-01-16T03:44:12;10.30;;;6.60;;
85104;SDS011;75457;53.198;45.008;2024-01-16T03:46:38;9.15;;;5.78;;
85104;SDS011;75457;53.198;45.008;2024-01-16T03:49:05;9.73;;;5.95;;
85104;SDS011;75457;53.198;45.008;2024-01-16T03:51:30;11.75;;;6.32;;
85104;SDS011;75457;53.198;45.008;2024-01-16T03:53:56;8.13;;;5.68;;
85104;SDS011;75457;53.198;45.008;2024-01-16T03:56:22;9.32;;;5.03;;
85104;SDS011;75457;53.198;45.008;2024-01-16T03:58:47;8.18;;;5.10;;
85104;SDS011;75457;53.198;45.008;2024-01-16T04:01:13;10.48;;;5.78;;
85104;SDS011;75457;53.198;45.008;2024-01-16T04:03:39;8.55;;;5.20;;
85104;SDS011;75457;53.198;45.008;2024-01-16T04:08:40;9.57;;;5.55;;
85104;SDS011;75457;53.198;45.008;2024-01-16T04:11:10;9.75;;;6.22;;
85104;SDS011;75457;53.198;45.008;2024-01-16T04:13:39;10.20;;;5.85;;
85104;SDS011;75457;53.198;45.008;2024-01-16T04:16:05;9.68;;;5.72;;
85104;SDS011;75457;53.198;45.008;2024-01-16T04:18:34;10.93;;;6.70;;
85104;SDS011;75457;53.198;45.008;2024-01-16T04:21:00;11.32;;;6.00;;
85104;SDS011;75457;53.198;45.008;2024-01-16T04:23:27;8.25;;;5.68;;
85104;SDS011;75457;53.198;45.008;2024-01-16T04:25:53;9.20;;;5.88;;
85104;SDS011;75457;53.198;45.008;2024-01-16T04:28:18;8.70;;;5.20;;
85104;SDS011;75457;53.198;45.008;2024-01-16T04:30:44;11.60;;;5.63;;
85104;SDS011;75457;53.198;45.008;2024-01-16T04:33:09;8.18;;;5.82;;
85104;SDS011;75457;53.198;45.008;2024-01-16T04:35:35;9.98;;;6.93;;
85104;SDS011;75457;53.198;45.008;2024-01-16T04:38:01;9.25;;;5.60;;
85104;SDS011;75457;53.198;45.008;2024-01-16T04:40:28;9.45;;;6.05;;
85104;SDS011;75457;53.198;45.008;2024-01-16T04:42:53;9.32;;;6.30;;
85104;SDS011;75457;53.198;45.008;2024-01-16T04:45:19;9.90;;;5.90;;
85104;SDS011;75457;53.198;45.008;2024-01-16T04:47:44;11.15;;;6.85;;
85104;SDS011;75457;53.198;45.008;2024-01-16T04:50:10;9.50;;;6.18;;
85104;SDS011;75457;53.198;45.008;2024-01-16T04:52:36;9.05;;;5.78;;
85104;SDS011;75457;53.198;45.008;2024-01-16T04:55:01;10.10;;;5.93;;
85104;SDS011;75457;53.198;45.008;2024-01-16T04:57:28;13.43;;;6.22;;
85104;SDS011;75457;53.198;45.008;2024-01-16T04:59:54;9.43;;;5.25;;
85104;SDS011;75457;53.198;45.008;2024-01-16T05:02:19;10.25;;;6.22;;
85104;SDS011;75457;53.198;45.008;2024-01-16T05:04:46;9.68;;;6.45;;
85104;SDS011;75457;53.198;45.008;2024-01-16T05:07:11;9.02;;;6.30;;
85104;SDS011;75457;53.198;45.008;2024-01-16T05:09:37;9.88;;;6.85;;
85104;SDS011;75457;53.198;45.008;2024-01-16T05:12:03;11.55;;;7.03;;
85104;SDS011;75457;53.198;45.008;2024-01-16T05:14:30;9.85;;;6.10;;
85104;SDS011;75457;53.198;45.008;2024-01-16T05:16:56;8.95;;;5.40;;
85104;SDS011;75457;53.198;45.008;2024-01-16T05:19:21;10.45;;;6.38;;
85104;SDS011;75457;53.198;45.008;2024-01-16T05:21:47;11.15;;;6.53;;
85104;SDS011;75457;53.198;45.008;2024-01-16T05:24:13;11.63;;;7.35;;
85104;SDS011;75457;53.198;45.008;2024-01-16T05:26:38;10.35;;;6.55;;
85104;SDS011;75457;53.198;45.008;2024-01-16T05:29:04;11.07;;;6.43;;
85104;SDS011;75457;53.198;45.008;2024-01-16T05:31:31;11.07;;;6.28;;
85104;SDS011;75457;53.198;45.008;2024-01-16T05:33:56;9.50;;;6.18;;
85104;SDS011;75457;53.198;45.008;2024-01-16T05:36:22;10.55;;;6.60;;
85104;SDS011;75457;53.198;45.008;2024-01-16T05:38:47;11.52;;;6.10;;
85104;SDS011;75457;53.198;45.008;2024-01-16T05:41:13;8.88;;;5.78;;
85104;SDS011;75457;53.198;45.008;2024-01-16T05:43:38;9.98;;;6.47;;
85104;SDS011;75457;53.198;45.008;2024-01-16T05:46:04;10.82;;;6.75;;
85104;SDS011;75457;53.198;45.008;2024-01-16T05:48:31;10.73;;;5.93;;
85104;SDS011;75457;53.198;45.008;2024-01-16T05:50:57;10.45;;;6.18;;
85104;SDS011;75457;53.198;45.008;2024-01-16T05:53:22;10.30;;;6.18;;
85104;SDS011;75457;53.198;45.008;2024-01-16T05:55:48;9.90;;;5.20;;
85104;SDS011;75457;53.198;45.008;2024-01-16T05:58:13;9.50;;;6.32;;
85104;SDS011;75457;53.198;45.008;2024-01-16T06:00:39;10.38;;;6.18;;
85104;SDS011;75457;53.198;45.008;2024-01-16T06:03:04;9.13;;;5.72;;
85104;SDS011;75457;53.198;45.008;2024-01-16T06:05:31;9.18;;;5.85;;
85104;SDS011;75457;53.198;45.008;2024-01-16T06:07:57;10.13;;;5.68;;
85104;SDS011;75457;53.198;45.008;2024-01-16T06:10:23;8.23;;;5.30;;
85104;SDS011;75457;53.198;45.008;2024-01-16T06:12:48;7.75;;;4.70;;
85104;SDS011;75457;53.198;45.008;2024-01-16T06:15:14;9.40;;;5.68;;
85104;SDS011;75457;53.198;45.008;2024-01-16T06:17:39;7.78;;;5.38;;
85104;SDS011;75457;53.198;45.008;2024-01-16T06:20:06;8.55;;;5.35;;
85104;SDS011;75457;53.198;45.008;2024-01-16T06:22:33;7.90;;;6.05;;
85104;SDS011;75457;53.198;45.008;2024-01-16T06:24:59;9.55;;;5.85;;
85104;SDS011;75457;53.198;45.008;2024-01-16T06:27:24;8.27;;;5.88;;
85104;SDS011;75457;53.198;45.008;2024-01-16T06:29:50;9.40;;;5.53;;
85104;SDS011;75457;53.198;45.008;2024-01-16T06:32:15;7.05;;;4.93;;
85104;SDS011;75457;53.198;45.008;2024-01-16T06:34:41;10.20;;;5.97;;
85104;SDS011;75457;53.198;45.008;2024-01-16T06:37:06;10.00;;;5.97;;
85104;SDS011;75457;53.198;45.008;2024-01-16T06:39:33;11.40;;;6.25;;
85104;SDS011;75457;53.198;45.008;2024-01-16T06:41:59;9.68;;;5.72;;
85104;SDS011;75457;53.198;45.008;2024-01-16T06:44:25;9.57;;;5.63;;
85104;SDS011;75457;53.198;45.008;2024-01-16T06:46:50;9.38;;;5.75;;
85104;SDS011;75457;53.198;45.008;2024-01-16T06:49:16;9.30;;;5.40;;
85104;SDS011;75457;53.198;45.008;2024-01-16T06:51:41;9.57;;;5.93;;
85104;SDS011;75457;53.198;45.008;2024-01-16T06:54:07;9.48;;;5.97;;
85104;SDS011;75457;53.198;45.008;2024-01-16T06:56:34;9.70;;;6.03;;
85104;SDS011;75457;53.198;45.008;2024-01-16T06:58:59;8.15;;;5.20;;
85104;SDS011;75457;53.198;45.008;2024-01-16T07:01:25;8.85;;;5.38;;
85104;SDS011;75457;53.198;45.008;2024-01-16T07:03:51;8.90;;;5.65;;
85104;SDS011;75457;53.198;45.008;2024-01-16T07:06:17;10.63;;;6.55;;
85104;SDS011;75457;53.198;45.008;2024-01-16T07:08:42;9.93;;;6.15;;
85104;SDS011;75457;53.198;45.008;2024-01-16T07:11:08;8.80;;;5.07;;
85104;SDS011;75457;53.198;45.008;2024-01-16T07:13:35;10.20;;;6.28;;
85104;SDS011;75457;53.198;45.008;2024-01-16T07:16:00;8.90;;;5.70;;
85104;SDS011;75457;53.198;45.008;2024-01-16T07:18:26;11.05;;;6.40;;
85104;SDS011;75457;53.198;45.008;2024-01-16T07:20:52;8.90;;;5.97;;
85104;SDS011;75457;53.198;45.008;2024-01-16T07:23:18;11.85;;;5.85;;
85104;SDS011;75457;53.198;45.008;2024-01-16T07:25:43;9.68;;;6.50;;
85104;SDS011;75457;53.198;45.008;2024-01-16T07:28:09;9.75;;;5.47;;
85104;SDS011;75457;53.198;45.008;2024-01-16T07:30:36;10.20;;;5.75;;
85104;SDS011;75457;53.198;45.008;2024-01-16T07:33:01;10.82;;;6.50;;
85104;SDS011;75457;53.198;45.008;2024-01-16T07:35:27;11.15;;;6.68;;
85104;SDS011;75457;53.198;45.008;2024-01-16T07:37:53;10.90;;;6.68;;
85104;SDS011;75457;53.198;45.008;2024-01-16T07:40:18;10.15;;;6.13;;
85104;SDS011;75457;53.198;45.008;2024-01-16T07:42:44;9.45;;;5.55;;
85104;SDS011;75457;53.198;45.008;2024-01-16T07:45:10;10.32;;;5.80;;
85104;SDS011;75457;53.198;45.008;2024-01-16T07:47:37;9.45;;;6.50;;
85104;SDS011;75457;53.198;45.008;2024-01-16T07:50:02;9.82;;;6.22;;
85104;SDS011;75457;53.198;45.008;2024-01-16T07:52:28;8.50;;;5.75;;
85104;SDS011;75457;53.198;45.008;2024-01-16T07:54:54;9.75;;;6.05;;
85104;SDS011;75457;53.198;45.008;2024-01-16T07:57:20;11.43;;;6.38;;
85104;SDS011;75457;53.198;45.008;2024-01-16T07:59:45;9.00;;;5.55;;
85104;SDS011;75457;53.198;45.008;2024-01-16T08:02:11;9.52;;;6.20;;
85104;SDS011;75457;53.198;45.008;2024-01-16T08:04:38;11.35;;;6.60;;
85104;SDS011;75457;53.198;45.008;2024-01-16T08:07:03;10.40;;;6.45;;
85104;SDS011;75457;53.198;45.008;2024-01-16T08:09:29;9.82;;;6.68;;
85104;SDS011;75457;53.198;45.008;2024-01-16T08:11:55;8.50;;;6.13;;
85104;SDS011;75457;53.198;45.008;2024-01-16T08:14:20;9.65;;;5.93;;
85104;SDS011;75457;53.198;45.008;2024-01-16T08:16:46;9.48;;;5.88;;
85104;SDS011;75457;53.198;45.008;2024-01-16T08:19:11;8.10;;;5.55;;
85104;SDS011;75457;53.198;45.008;2024-01-16T08:21:39;10.10;;;5.72;;
85104;SDS011;75457;53.198;45.008;2024-01-16T08:24:05;9.48;;;6.13;;
85104;SDS011;75457;53.198;45.008;2024-01-16T08:26:30;8.13;;;5.68;;
85104;SDS011;75457;53.198;45.008;2024-01-16T08:28:57;6.68;;;5.32;;
85104;SDS011;75457;53.198;45.008;2024-01-16T08:31:23;9.88;;;5.82;;
85104;SDS011;75457;53.198;45.008;2024-01-16T08:33:48;7.25;;;5.35;;
85104;SDS011;75457;53.198;45.008;2024-01-16T08:36:14;7.63;;;5.35;;
85104;SDS011;75457;53.198;45.008;2024-01-16T08:38:41;7.88;;;5.03;;
85104;SDS011;75457;53.198;45.008;2024-01-16T08:41:06;7.50;;;5.30;;
85104;SDS011;75457;53.198;45.008;2024-01-16T08:43:32;9.55;;;6.15;;
85104;SDS011;75457;53.198;45.008;2024-01-16T08:45:57;7.60;;;5.18;;
85104;SDS011;75457;53.198;45.008;2024-01-16T08:48:23;8.10;;;5.47;;
85104;SDS011;75457;53.198;45.008;2024-01-16T08:50:49;9.27;;;5.95;;
85104;SDS011;75457;53.198;45.008;2024-01-16T08:53:14;7.80;;;5.60;;
85104;SDS011;75457;53.198;45.008;2024-01-16T08:55:41;6.88;;;5.20;;
85104;SDS011;75457;53.198;45.008;2024-01-16T08:58:07;8.73;;;6.05;;
85104;SDS011;75457;53.198;45.008;2024-01-16T09:00:32;9.60;;;6.25;;
85104;SDS011;75457;53.198;45.008;2024-01-16T09:02:58;9.30;;;6.18;;
85104;SDS011;75457;53.198;45.008;2024-01-16T09:05:23;9.35;;;5.93;;
85104;SDS011;75457;53.198;45.008;2024-01-16T09:07:49;9.82;;;5.30;;
85104;SDS011;75457;53.198;45.008;2024-01-16T09:10:15;8.40;;;5.50;;
85104;SDS011;75457;53.198;45.008;2024-01-16T09:12:42;7.28;;;5.60;;
85104;SDS011;75457;53.198;45.008;2024-01-16T09:15:08;8.23;;;5.55;;
85104;SDS011;75457;53.198;45.008;2024-01-16T09:17:34;7.15;;;5.75;;
85104;SDS011;75457;53.198;45.008;2024-01-16T09:20:00;7.85;;;5.40;;
85104;SDS011;75457;53.198;45.008;2024-01-16T09:22:25;8.60;;;5.60;;
85104;SDS011;75457;53.198;45.008;2024-01-16T09:24:51;7.95;;;5.95;;
85104;SDS011;75457;53.198;45.008;2024-01-16T09:27:16;8.55;;;5.50;;
85104;SDS011;75457;53.198;45.008;2024-01-16T09:29:43;7.13;;;5.28;;
85104;SDS011;75457;53.198;45.008;2024-01-16T09:32:09;7.82;;;5.65;;
85104;SDS011;75457;53.198;45.008;2024-01-16T09:34:34;7.82;;;5.30;;
85104;SDS011;75457;53.198;45.008;2024-01-16T09:37:00;10.48;;;5.70;;
85104;SDS011;75457;53.198;45.008;2024-01-16T09:39:25;8.27;;;5.75;;
85104;SDS011;75457;53.198;45.008;2024-01-16T09:41:51;8.75;;;5.63;;
85104;SDS011;75457;53.198;45.008;2024-01-16T09:44:17;9.57;;;6.07;;
85104;SDS011;75457;53.198;45.008;2024-01-16T09:46:44;7.63;;;5.65;;
85104;SDS011;75457;53.198;45.008;2024-01-16T09:49:10;8.07;;;5.53;;
85104;SDS011;75457;53.198;45.008;2024-01-16T09:51:37;7.63;;;5.13;;
85104;SDS011;75457;53.198;45.008;2024-01-16T09:54:02;7.10;;;5.43;;
85104;SDS011;75457;53.198;45.008;2024-01-16T09:56:28;9.95;;;6.05;;
85104;SDS011;75457;53.198;45.008;2024-01-16T09:58:56;8.93;;;5.15;;
85104;SDS011;75457;53.198;45.008;2024-01-16T10:01:26;6.00;;;4.88;;
85104;SDS011;75457;53.198;45.008;2024-01-16T10:03:54;5.68;;;4.07;;
85104;SDS011;75457;53.198;45.008;2024-01-16T10:06:19;7.25;;;4.43;;
85104;SDS011;75457;53.198;45.008;2024-01-16T10:08:45;5.57;;;4.55;;
85104;SDS011;75457;53.198;45.008;2024-01-16T10:11:11;6.20;;;4.70;;
85104;SDS011;75457;53.198;45.008;2024-01-16T10:13:37;6.47;;;4.57;;
85104;SDS011;75457;53.198;45.008;2024-01-16T10:16:03;6.35;;;5.00;;
85104;SDS011;75457;53.198;45.008;2024-01-16T10:18:29;7.05;;;4.35;;
85104;SDS011;75457;53.198;45.008;2024-01-16T10:20:56;7.97;;;5.13;;
85104;SDS011;75457;53.198;45.008;2024-01-16T10:23:22;5.63;;;4.43;;
85104;SDS011;75457;53.198;45.008;2024-01-16T10:25:50;6.63;;;4.45;;
85104;SDS011;75457;53.198;45.008;2024-01-16T10:28:30;5.68;;;4.38;;
85104;SDS011;75457;53.198;45.008;2024-01-16T10:31:00;6.80;;;4.45;;
85104;SDS011;75457;53.198;45.008;2024-01-16T10:33:27;6.18;;;4.70;;
85104;SDS011;75457;53.198;45.008;2024-01-16T10:35:55;6.03;;;4.78;;
85104;SDS011;75457;53.198;45.008;2024-01-16T10:38:33;7.65;;;5.28;;
85104;SDS011;75457;53.198;45.008;2024-01-16T10:41:06;6.13;;;4.72;;
85104;SDS011;75457;53.198;45.008;2024-01-16T10:43:34;7.50;;;4.93;;
85104;SDS011;75457;53.198;45.008;2024-01-16T10:46:06;7.88;;;5.05;;
85104;SDS011;75457;53.198;45.008;2024-01-16T10:48:32;6.78;;;4.20;;
85104;SDS011;75457;53.198;45.008;2024-01-16T10:50:59;6.97;;;4.75;;
85104;SDS011;75457;53.198;45.008;2024-01-16T10:53:27;6.00;;;4.80;;
85104;SDS011;75457;53.198;45.008;2024-01-16T10:55:57;6.45;;;4.97;;
85104;SDS011;75457;53.198;45.008;2024-01-16T10:58:24;5.75;;;4.55;;
85104;SDS011;75457;53.198;45.008;2024-01-16T11:00:50;4.78;;;4.18;;
85104;SDS011;75457;53.198;45.008;2024-01-16T11:03:18;8.50;;;5.47;;
85104;SDS011;75457;53.198;45.008;2024-01-16T11:05:49;7.10;;;4.63;;
85104;SDS011;75457;53.198;45.008;2024-01-16T11:08:18;6.53;;;4.57;;
85104;SDS011;75457;53.198;45.008;2024-01-16T11:10:44;6.15;;;4.45;;
85104;SDS011;75457;53.198;45.008;2024-01-16T11:13:11;7.30;;;4.85;;
85104;SDS011;75457;53.198;45.008;2024-01-16T11:15:38;6.55;;;4.20;;
85104;SDS011;75457;53.198;45.008;2024-01-16T11:18:05;5.82;;;4.03;;
85104;SDS011;75457;53.198;45.008;2024-01-16T11:20:33;6.70;;;4.50;;
85104;SDS011;75457;53.198;45.008;2024-01-16T11:23:00;8.25;;;4.63;;
85104;SDS011;75457;53.198;45.008;2024-01-16T11:25:32;5.55;;;4.32;;
85104;SDS011;75457;53.198;45.008;2024-01-16T11:28:07;7.68;;;4.57;;
85104;SDS011;75457;53.198;45.008;2024-01-16T11:30:34;6.93;;;4.60;;
85104;SDS011;75457;53.198;45.008;2024-01-16T11:32:59;9.88;;;5.93;;
85104;SDS011;75457;53.198;45.008;2024-01-16T11:35:31;9.57;;;7.68;;
85104;SDS011;75457;53.198;45.008;2024-01-16T11:38:02;7.63;;;6.22;;
85104;SDS011;75457;53.198;45.008;2024-01-16T11:40:33;9.25;;;7.28;;
85104;SDS011;75457;53.198;45.008;2024-01-16T11:42:58;9.95;;;6.93;;
85104;SDS011;75457;53.198;45.008;2024-01-16T11:46:00;7.85;;;6.43;;
85104;SDS011;75457;53.198;45.008;2024-01-16T11:48:27;6.35;;;4.95;;
85104;SDS011;75457;53.198;45.008;2024-01-16T11:50:53;7.47;;;5.32;;
85104;SDS011;75457;53.198;45.008;2024-01-16T11:53:31;9.45;;;5.45;;
85104;SDS011;75457;53.198;45.008;2024-01-16T11:59:10;10.25;;;6.00;;
85104;SDS011;75457;53.198;45.008;2024-01-16T12:04:17;7.43;;;3.88;;
85104;SDS011;75457;53.198;45.008;2024-01-16T12:06:43;6.60;;;3.70;;
85104;SDS011;75457;53.198;45.008;2024-01-16T12:09:12;6.43;;;3.60;;
85104;SDS011;75457;53.198;45.008;2024-01-16T12:11:39;6.15;;;4.00;;
85104;SDS011;75457;53.198;45.008;2024-01-16T12:14:05;6.97;;;4.28;;
85104;SDS011;75457;53.198;45.008;2024-01-16T12:16:30;7.88;;;4.68;;
85104;SDS011;75457;53.198;45.008;2024-01-16T12:19:03;4.97;;;3.40;;
85104;SDS011;75457;53.198;45.008;2024-01-16T12:21:29;4.70;;;3.53;;
85104;SDS011;75457;53.198;45.008;2024-01-16T12:23:55;5.78;;;4.05;;
85104;SDS011;75457;53.198;45.008;2024-01-16T12:26:21;5.45;;;2.95;;
85104;SDS011;75457;53.198;45.008;2024-01-16T12:28:51;4.78;;;2.78;;
85104;SDS011;75457;53.198;45.008;2024-01-16T12:31:17;7.80;;;3.60;;
85104;SDS011;75457;53.198;45.008;2024-01-16T12:33:43;7.65;;;3.53;;
85104;SDS011;75457;53.198;45.008;2024-01-16T12:36:08;6.50;;;3.72;;
85104;SDS011;75457;53.198;45.008;2024-01-16T12:38:34;5.05;;;3.33;;
85104;SDS011;75457;53.198;45.008;2024-01-16T12:40:59;7.43;;;3.75;;
85104;SDS011;75457;53.198;45.008;2024-01-16T12:43:26;6.25;;;3.83;;
85104;SDS011;75457;53.198;45.008;2024-01-16T12:45:56;5.25;;;3.22;;
85104;SDS011;75457;53.198;45.008;2024-01-16T12:48:22;5.82;;;3.65;;
85104;SDS011;75457;53.198;45.008;2024-01-16T12:50:48;4.75;;;3.28;;
85104;SDS011;75457;53.198;45.008;2024-01-16T12:53:13;6.20;;;3.55;;
85104;SDS011;75457;53.198;45.008;2024-01-16T12:55:39;9.50;;;4.03;;
85104;SDS011;75457;53.198;45.008;2024-01-16T12:58:15;6.57;;;3.55;;
85104;SDS011;75457;53.198;45.008;2024-01-16T13:00:41;5.40;;;3.30;;
85104;SDS011;75457;53.198;45.008;2024-01-16T13:03:14;8.95;;;3.60;;
85104;SDS011;75457;53.198;45.008;2024-01-16T13:05:40;5.80;;;3.17;;
85104;SDS011;75457;53.198;45.008;2024-01-16T13:08:05;6.88;;;2.92;;
85104;SDS011;75457;53.198;45.008;2024-01-16T13:10:31;4.60;;;3.17;;
85104;SDS011;75457;53.198;45.008;2024-01-16T13:15:38;6.15;;;3.17;;
85104;SDS011;75457;53.198;45.008;2024-01-16T13:18:03;3.58;;;2.45;;
85104;SDS011;75457;53.198;45.008;2024-01-16T13:20:31;4.93;;;3.00;;
85104;SDS011;75457;53.198;45.008;2024-01-16T13:22:56;5.07;;;2.40;;
85104;SDS011;75457;53.198;45.008;2024-01-16T13:25:22;3.40;;;1.85;;
85104;SDS011;75457;53.198;45.008;2024-01-16T13:27:47;4.60;;;2.35;;
85104;SDS011;75457;53.198;45.008;2024-01-16T13:30:13;3.70;;;1.95;;
85104;SDS011;75457;53.198;45.008;2024-01-16T13:32:39;3.05;;;2.15;;
85104;SDS011;75457;53.198;45.008;2024-01-16T13:35:04;4.20;;;2.83;;
85104;SDS011;75457;53.198;45.008;2024-01-16T13:37:31;3.33;;;2.28;;
85104;SDS011;75457;53.198;45.008;2024-01-16T13:39:57;2.42;;;1.75;;
85104;SDS011;75457;53.198;45.008;2024-01-16T13:42:22;3.38;;;2.17;;
85104;SDS011;75457;53.198;45.008;2024-01-16T13:44:48;3.55;;;1.83;;
85104;SDS011;75457;53.198;45.008;2024-01-16T13:47:15;3.00;;;1.85;;
85104;SDS011;75457;53.198;45.008;2024-01-16T13:49:40;3.33;;;1.80;;
85104;SDS011;75457;53.198;45.008;2024-01-16T13:52:06;3.67;;;1.70;;
85104;SDS011;75457;53.198;45.008;2024-01-16T13:54:33;2.78;;;1.70;;
85104;SDS011;75457;53.198;45.008;2024-01-16T13:57:01;4.22;;;2.58;;
85104;SDS011;75457;53.198;45.008;2024-01-16T13:59:27;3.08;;;1.83;;
85104;SDS011;75457;53.198;45.008;2024-01-16T14:01:52;2.55;;;1.75;;
85104;SDS011;75457;53.198;45.008;2024-01-16T14:04:18;3.70;;;2.03;;
85104;SDS011;75457;53.198;45.008;2024-01-16T14:06:44;6.07;;;2.80;;
85104;SDS011;75457;53.198;45.008;2024-01-16T14:09:09;2.60;;;1.90;;
85104;SDS011;75457;53.198;45.008;2024-01-16T14:11:36;3.25;;;2.10;;
85104;SDS011;75457;53.198;45.008;2024-01-16T14:14:02;3.60;;;2.00;;
85104;SDS011;75457;53.198;45.008;2024-01-16T14:16:28;4.32;;;2.42;;
85104;SDS011;75457;53.198;45.008;2024-01-16T14:18:53;4.57;;;2.50;;
85104;SDS011;75457;53.198;45.008;2024-01-16T14:21:19;3.50;;;2.20;;
85104;SDS011;75457;53.198;45.008;2024-01-16T14:23:44;4.30;;;2.22;;
85104;SDS011;75457;53.198;45.008;2024-01-16T14:26:10;3.65;;;2.10;;
85104;SDS011;75457;53.198;45.008;2024-01-16T14:28:37;4.55;;;2.00;;
85104;SDS011;75457;53.198;45.008;2024-01-16T14:31:02;3.95;;;2.20;;
85104;SDS011;75457;53.198;45.008;2024-01-16T14:33:28;3.30;;;2.10;;
85104;SDS011;75457;53.198;45.008;2024-01-16T14:35:54;3.63;;;2.28;;
85104;SDS011;75457;53.198;45.008;2024-01-16T14:38:19;4.25;;;2.47;;